Time;durP1;ratioP1;P1;durP2;ratioP2;P2;SDS_P1;SDS_P2;PMS_P1;PMS_P2;Temp;Humidity;BMP_temperature;BMP_pressure;BME280_temperature;BME280_humidity;BME280_pressure;Samples;Min_cycle;Max_cycle;Signal;HPM_P1;HPM_P2
2022/02/22 00:00:49;;;;;;;19.27;2.53;;;;;;;4.62;97.39;98708.03;5063567;28;20032;-67
2022/02/22 00:03:15;;;;;;;9.18;2.10;;;;;;;4.60;97.46;98720.16;5063469;28;20347;-67
2022/02/22 00:05:40;;;;;;;9.27;1.50;;;;;;;4.55;97.34;98717.53;5064004;28;20025;-67
2022/02/22 00:08:06;;;;;;;7.72;1.58;;;;;;;4.57;97.24;98727.97;5063532;28;20302;-67
2022/02/22 00:10:31;;;;;;;6.53;1.33;;;;;;;4.54;97.08;98726.22;5063639;28;20043;-67
2022/02/22 00:12:57;;;;;;;8.38;2.00;;;;;;;4.50;97.30;98735.75;5063509;28;20040;-67
2022/02/22 00:15:22;;;;;;;9.00;2.00;;;;;;;4.47;97.02;98745.28;5064173;28;20028;-67
2022/02/22 00:17:48;;;;;;;17.75;2.30;;;;;;;4.41;97.62;98746.13;5064170;28;20029;-67
2022/02/22 00:20:15;;;;;;;8.68;1.88;;;;;;;4.41;97.57;98750.47;5064132;28;20071;-67
2022/02/22 00:22:40;;;;;;;8.73;2.22;;;;;;;4.38;97.37;98753.94;5063975;28;20320;-67
2022/02/22 00:25:11;;;;;;;8.85;2.13;;;;;;;4.37;97.76;98765.19;5063957;28;20123;-67
2022/02/22 00:27:37;;;;;;;8.95;2.00;;;;;;;4.41;98.08;98766.97;5063719;28;20040;-67
2022/02/22 00:30:03;;;;;;;9.77;2.75;;;;;;;4.45;98.46;98768.75;5063284;28;20088;-67
2022/02/22 00:32:29;;;;;;;7.88;1.58;;;;;;;4.52;98.62;98779.19;5062579;28;20032;-67
2022/02/22 00:34:54;;;;;;;9.23;1.38;;;;;;;4.50;98.07;98772.22;5062900;28;20017;-67
2022/02/22 00:37:19;;;;;;;9.40;2.22;;;;;;;4.54;98.59;98773.13;5063213;28;20078;-67
2022/02/22 00:39:45;;;;;;;8.75;2.47;;;;;;;4.52;98.34;98779.19;5063120;28;20017;-67
2022/02/22 00:42:10;;;;;;;11.27;2.58;;;;;;;4.60;98.73;98782.72;5063050;28;20088;-67
2022/02/22 00:44:36;;;;;;;12.77;2.08;;;;;;;4.66;98.41;98783.63;5062881;28;20220;-67
2022/02/22 00:47:01;;;;;;;6.55;1.80;;;;;;;4.62;98.68;98781.00;5062820;28;20063;-67
2022/02/22 00:49:27;;;;;;;14.95;1.90;;;;;;;4.61;98.95;98784.44;5063025;28;20021;-67
2022/02/22 00:51:52;;;;;;;7.28;1.48;;;;;;;4.60;98.58;98787.94;5063245;28;20020;-67
2022/02/22 00:54:18;;;;;;;6.35;1.60;;;;;;;4.53;98.55;98786.16;5063103;28;20044;-67
2022/02/22 00:56:43;;;;;;;7.47;1.80;;;;;;;4.56;98.77;98797.47;5063053;28;20017;-67
2022/02/22 00:59:08;;;;;;;3.90;1.40;;;;;;;4.63;99.41;98788.84;5062575;28;20047;-67
2022/02/22 01:01:34;;;;;;;17.00;1.80;;;;;;;4.67;99.87;98785.38;5062785;28;20067;-67
2022/02/22 01:03:59;;;;;;;8.77;2.17;;;;;;;4.75;100.00;98803.69;5062408;28;20017;-67
2022/02/22 01:06:25;;;;;;;8.57;1.67;;;;;;;4.68;100.00;98796.69;5062725;28;20017;-67
2022/02/22 01:08:50;;;;;;;9.70;1.90;;;;;;;4.61;100.00;98797.47;5062760;28;20037;-67
2022/02/22 01:11:16;;;;;;;10.82;1.45;;;;;;;4.59;99.89;98802.72;5062848;28;20067;-67
2022/02/22 01:13:41;;;;;;;7.55;1.58;;;;;;;4.52;100.00;98797.44;5062388;28;20313;-66
2022/02/22 01:16:06;;;;;;;5.50;1.90;;;;;;;4.49;100.00;98822.63;5062978;28;20331;-66
2022/02/22 01:18:32;;;;;;;9.20;2.58;;;;;;;4.41;100.00;98811.28;5062666;28;20080;-66
2022/02/22 01:20:57;;;;;;;6.70;2.47;;;;;;;4.45;100.00;98815.66;5062987;28;20025;-66
2022/02/22 01:23:23;;;;;;;9.23;2.50;;;;;;;4.52;100.00;98821.75;5062603;28;20032;-66
2022/02/22 01:25:50;;;;;;;14.45;2.50;;;;;;;4.50;100.00;98813.06;5062803;28;20024;-66
2022/02/22 01:28:15;;;;;;;8.90;2.28;;;;;;;4.42;100.00;98818.22;5063127;28;20046;-66
2022/02/22 01:30:40;;;;;;;18.30;2.70;;;;;;;4.52;100.00;98824.34;5062487;28;20190;-66
2022/02/22 01:33:06;;;;;;;12.23;2.05;;;;;;;4.52;100.00;98826.97;5062835;28;20013;-66
2022/02/22 01:35:31;;;;;;;14.15;2.40;;;;;;;4.49;99.72;98832.16;5062570;28;20391;-66
2022/02/22 01:37:57;;;;;;;6.20;2.47;;;;;;;4.51;99.71;98835.66;5062840;28;20305;-66
2022/02/22 01:40:22;;;;;;;9.70;2.83;;;;;;;4.53;100.00;98830.47;5062243;28;20036;-66
2022/02/22 01:42:47;;;;;;;9.90;2.08;;;;;;;4.44;99.62;98829.50;5062228;28;20025;-66
2022/02/22 01:45:13;;;;;;;6.10;1.45;;;;;;;4.35;99.57;98832.06;5064976;28;20027;-66
2022/02/22 01:47:39;;;;;;;5.15;1.40;;;;;;;4.34;99.59;98835.50;5066533;28;20017;-66
2022/02/22 01:50:05;;;;;;;7.93;1.60;;;;;;;4.25;99.65;98847.59;5065943;28;20220;-66
2022/02/22 01:52:31;;;;;;;8.90;2.05;;;;;;;4.30;99.88;98841.56;5066243;28;20307;-66
2022/02/22 01:54:56;;;;;;;12.30;2.22;;;;;;;4.30;99.69;98841.56;5065809;28;20066;-66
2022/02/22 01:57:23;;;;;;;17.42;2.58;;;;;;;4.27;99.63;98859.78;5066189;28;20032;-66
2022/02/22 01:59:49;;;;;;;9.00;1.90;;;;;;;4.20;99.80;98863.19;5065722;28;20072;-66
2022/02/22 02:02:15;;;;;;;4.75;1.77;;;;;;;4.22;100.00;98858.88;5065783;28;20028;-67
2022/02/22 02:04:40;;;;;;;10.38;2.17;;;;;;;4.29;100.00;98865.88;5066193;28;20024;-67
2022/02/22 02:07:06;;;;;;;9.88;1.60;;;;;;;4.35;100.00;98871.16;5066249;28;20371;-67
2022/02/22 02:09:32;;;;;;;5.82;1.48;;;;;;;4.42;100.00;98867.72;5066004;28;20028;-67
2022/02/22 02:12:02;;;;;;;6.70;2.35;;;;;;;4.52;99.97;98878.25;5066517;28;20029;-67
2022/02/22 02:14:28;;;;;;;5.53;1.40;;;;;;;4.56;99.43;98880.88;5066462;28;20247;-67
2022/02/22 02:16:56;;;;;;;7.93;1.70;;;;;;;4.52;98.90;98884.31;5066399;28;20021;-66
2022/02/22 02:19:22;;;;;;;6.90;1.80;;;;;;;4.47;99.13;98876.44;5066332;28;20028;-66
2022/02/22 02:21:49;;;;;;;7.63;1.70;;;;;;;4.38;98.75;98881.59;5066252;28;20025;-66
2022/02/22 02:24:15;;;;;;;6.95;1.55;;;;;;;4.32;99.14;98886.75;5065446;28;20016;-66
2022/02/22 02:26:41;;;;;;;5.13;2.15;;;;;;;4.30;99.49;98885.84;5065534;28;20020;-66
2022/02/22 02:29:08;;;;;;;10.10;1.75;;;;;;;4.36;99.72;98898.94;5065512;28;20024;-66
2022/02/22 02:31:38;;;;;;;7.72;1.20;;;;;;;4.39;99.35;98898.97;5065402;28;20354;-66
2022/02/22 02:34:05;;;;;;;8.15;1.52;;;;;;;4.44;99.43;98896.41;5065460;28;20335;-66
2022/02/22 02:36:34;;;;;;;11.85;2.17;;;;;;;4.60;99.29;98907.84;5065029;28;20029;-66
2022/02/22 02:39:01;;;;;;;7.45;1.92;;;;;;;4.52;98.88;98910.38;5065397;28;20075;-66
2022/02/22 02:41:27;;;;;;;4.65;2.03;;;;;;;4.44;98.93;98915.50;5065249;28;20216;-66
2022/02/22 02:43:53;;;;;;;9.27;1.92;;;;;;;4.38;98.90;98912.88;5065378;28;20021;-66
2022/02/22 02:46:19;;;;;;;9.82;2.30;;;;;;;4.28;99.18;98915.38;5064960;28;20332;-66
2022/02/22 02:48:44;;;;;;;3.10;1.75;;;;;;;4.27;98.63;98914.50;5065102;28;20390;-66
2022/02/22 02:51:10;;;;;;;9.63;1.73;;;;;;;4.25;98.95;98918.78;5064878;28;20043;-66
2022/02/22 02:53:35;;;;;;;2.85;1.02;;;;;;;4.21;99.14;98919.63;5065062;28;20028;-66
2022/02/22 02:56:01;;;;;;;6.40;1.70;;;;;;;4.17;99.38;98917.88;5063648;28;20284;-66
2022/02/22 02:58:26;;;;;;;5.22;2.00;;;;;;;4.14;99.51;98911.75;5064963;28;20028;-67
2022/02/22 03:00:52;;;;;;;2.92;1.58;;;;;;;4.16;99.47;98915.25;5064840;28;20384;-67
2022/02/22 03:03:17;;;;;;;7.32;1.92;;;;;;;4.14;99.50;98922.16;5065020;28;20027;-67
2022/02/22 03:05:43;;;;;;;8.48;1.88;;;;;;;4.15;100.00;98919.56;5065467;28;20025;-67
2022/02/22 03:08:08;;;;;;;6.60;2.22;;;;;;;4.16;100.00;98923.94;5065429;28;20027;-67
2022/02/22 03:10:33;;;;;;;6.30;1.58;;;;;;;4.25;100.00;98924.00;5065662;28;20244;-67
2022/02/22 03:12:59;;;;;;;6.05;1.90;;;;;;;4.22;100.00;98937.03;5065324;28;20017;-66
2022/02/22 03:15:24;;;;;;;6.05;2.20;;;;;;;4.16;99.73;98941.28;5065297;28;20031;-66
2022/02/22 03:17:50;;;;;;;13.23;2.15;;;;;;;4.12;100.00;98948.19;5065230;28;20355;-66
2022/02/22 03:20:15;;;;;;;13.60;3.10;;;;;;;4.02;100.00;98954.16;5065149;28;20021;-66
2022/02/22 03:22:45;;;;;;;10.65;2.25;;;;;;;3.91;100.00;98950.56;5064709;28;20124;-66
2022/02/22 03:25:12;;;;;;;14.70;3.28;;;;;;;3.94;100.00;98954.94;5064298;28;20303;-66
2022/02/22 03:27:37;;;;;;;18.90;2.80;;;;;;;3.93;100.00;98959.25;5064507;28;20088;-66
2022/02/22 03:30:05;;;;;;;5.35;2.80;;;;;;;3.93;100.00;98959.25;5062914;28;20115;-66
2022/02/22 03:32:30;;;;;;;5.57;2.22;;;;;;;3.93;100.00;98959.25;5064132;28;20028;-66
2022/02/22 03:34:56;;;;;;;7.03;2.72;;;;;;;3.94;100.00;98965.34;5064200;28;20013;-66
2022/02/22 03:37:21;;;;;;;11.98;3.00;;;;;;;4.00;100.00;98955.88;5064439;28;20078;-66
2022/02/22 03:39:46;;;;;;;10.75;2.03;;;;;;;3.99;100.00;98963.69;5064248;28;20332;-66
2022/02/22 03:42:12;;;;;;;6.70;2.17;;;;;;;3.94;100.00;98955.81;5063877;28;20052;-66
2022/02/22 03:44:37;;;;;;;10.80;2.33;;;;;;;3.96;100.00;98961.91;5064123;28;20021;-66
2022/02/22 03:47:03;;;;;;;9.32;2.35;;;;;;;3.90;100.00;98964.41;5066563;28;20021;-66
2022/02/22 03:49:28;;;;;;;4.82;2.72;;;;;;;3.86;100.00;98967.84;5067269;28;20032;-66
2022/02/22 03:51:54;;;;;;;8.45;2.67;;;;;;;3.89;100.00;98967.88;5065280;28;20036;-66
2022/02/22 03:54:19;;;;;;;24.17;2.70;;;;;;;3.99;100.00;98971.50;5065064;28;20021;-66
2022/02/22 03:56:45;;;;;;;10.63;3.63;;;;;;;4.07;100.00;98978.53;5065276;28;20327;-66
2022/02/22 03:59:11;;;;;;;12.18;2.95;;;;;;;4.21;100.00;98982.16;5064722;28;20079;-67
2022/02/22 04:01:37;;;;;;;14.60;1.98;;;;;;;4.21;100.00;98981.31;5064433;28;20021;-67
2022/02/22 04:04:02;;;;;;;17.23;2.45;;;;;;;4.17;100.00;98990.81;5064535;28;20063;-67
2022/02/22 04:06:28;;;;;;;18.25;3.67;;;;;;;4.19;100.00;99004.72;5058972;28;20017;-67
2022/02/22 04:08:53;;;;;;;10.20;2.58;;;;;;;4.24;100.00;98997.81;5064280;28;20025;-67
2022/02/22 04:11:19;;;;;;;3.58;2.20;;;;;;;4.20;100.00;99001.25;5064298;28;20080;-67
2022/02/22 04:13:44;;;;;;;8.32;2.45;;;;;;;4.21;99.96;99004.75;5057591;28;20021;-67
2022/02/22 04:16:09;;;;;;;6.05;2.35;;;;;;;4.19;99.97;99012.53;5064184;28;20060;-67
2022/02/22 04:18:35;;;;;;;13.40;3.03;;;;;;;4.15;100.00;99013.34;5064711;28;20023;-67
2022/02/22 04:21:01;;;;;;;14.73;3.30;;;;;;;4.20;100.00;99022.09;5065168;28;20023;-67
2022/02/22 04:23:26;;;;;;;15.88;3.05;;;;;;;4.16;100.00;99035.94;5064633;28;20066;-67
2022/02/22 04:25:51;;;;;;;9.40;3.03;;;;;;;4.07;100.00;99030.63;5064913;28;20369;-67
2022/02/22 04:28:17;;;;;;;7.93;2.67;;;;;;;4.07;100.00;99042.75;5063785;28;20052;-67
2022/02/22 04:30:44;;;;;;;11.63;3.47;;;;;;;4.01;100.00;99040.97;5063765;28;20020;-67
2022/02/22 04:33:09;;;;;;;11.85;3.97;;;;;;;3.93;100.00;99037.38;5064373;28;20353;-67
2022/02/22 04:35:35;;;;;;;4.35;2.25;;;;;;;3.93;99.91;99050.38;5063999;28;20017;-67
2022/02/22 04:38:00;;;;;;;16.05;4.00;;;;;;;3.88;100.00;99049.47;5064242;28;20092;-67
2022/02/22 04:40:26;;;;;;;11.15;3.05;;;;;;;3.87;100.00;99052.94;5063857;28;20083;-67
2022/02/22 04:42:52;;;;;;;13.48;2.67;;;;;;;3.84;100.00;99047.69;5064108;28;20384;-67
2022/02/22 04:45:18;;;;;;;9.43;2.92;;;;;;;3.78;100.00;99047.59;5063963;28;20378;-67
2022/02/22 04:47:44;;;;;;;11.05;2.97;;;;;;;3.77;100.00;99056.25;5064348;28;20020;-67
2022/02/22 04:50:10;;;;;;;9.93;2.85;;;;;;;3.81;100.00;99062.38;5063718;28;20204;-67
2022/02/22 04:52:36;;;;;;;4.68;2.35;;;;;;;3.76;100.00;99064.91;5061399;28;20273;-67
2022/02/22 04:55:03;;;;;;;10.98;2.90;;;;;;;3.78;100.00;99068.44;5064805;28;20017;-67
2022/02/22 04:57:28;;;;;;;8.18;2.67;;;;;;;3.79;100.00;99071.88;5060316;28;20017;-67
2022/02/22 04:59:54;;;;;;;10.02;2.83;;;;;;;3.76;100.00;99075.34;5063688;28;20075;-67
2022/02/22 05:02:19;;;;;;;16.67;3.05;;;;;;;3.69;100.00;99068.28;5063558;28;20037;-67
2022/02/22 05:04:45;;;;;;;11.23;3.00;;;;;;;3.60;100.00;99078.56;5058375;28;20024;-67
2022/02/22 05:07:10;;;;;;;6.85;2.65;;;;;;;3.52;100.00;99085.41;5063093;28;20063;-67
2022/02/22 05:09:36;;;;;;;12.98;2.67;;;;;;;3.51;100.00;99082.78;5062781;28;20312;-69
2022/02/22 05:12:01;;;;;;;16.35;3.20;;;;;;;3.44;100.00;99092.19;5063488;28;20017;-69
2022/02/22 05:14:27;;;;;;;8.93;2.75;;;;;;;3.39;100.00;99083.41;5063808;28;20051;-69
2022/02/22 05:16:52;;;;;;;8.40;2.70;;;;;;;3.29;100.00;99086.72;5063516;28;20043;-69
2022/02/22 05:19:17;;;;;;;17.70;3.35;;;;;;;3.27;100.00;99083.25;5064379;28;20020;-69
2022/02/22 05:21:44;;;;;;;14.75;3.45;;;;;;;3.26;100.00;99085.81;5067333;28;20021;-69
2022/02/22 05:24:09;;;;;;;13.55;2.60;;;;;;;3.21;100.00;99082.25;5067339;28;20040;-70
2022/02/22 05:26:36;;;;;;;7.60;2.33;;;;;;;3.17;100.00;99081.34;5067334;28;20024;-70
2022/02/22 05:29:01;;;;;;;8.43;2.20;;;;;;;3.16;100.00;99082.19;5067592;28;20313;-70
2022/02/22 05:31:27;;;;;;;9.25;2.78;;;;;;;3.12;100.00;99076.91;5067317;28;20021;-70
2022/02/22 05:33:52;;;;;;;22.40;3.15;;;;;;;3.00;100.00;99072.38;5067225;28;20198;-70
2022/02/22 05:36:20;;;;;;;6.57;2.10;;;;;;;2.91;100.00;99074.81;5067246;28;20047;-70
2022/02/22 05:38:45;;;;;;;5.60;2.95;;;;;;;2.90;100.00;99086.06;5067230;28;20020;-70
2022/02/22 05:41:13;;;;;;;7.40;3.08;;;;;;;2.82;100.00;99082.47;5067092;28;20028;-70
2022/02/22 05:43:39;;;;;;;13.13;2.63;;;;;;;2.80;100.00;99084.16;5066994;28;20082;-70
2022/02/22 05:46:04;;;;;;;13.43;2.50;;;;;;;2.73;100.00;99082.28;5066995;28;20336;-70
2022/02/22 05:48:30;;;;;;;12.43;2.30;;;;;;;2.70;100.00;99087.44;5066958;28;20096;-70
2022/02/22 05:50:55;;;;;;;11.77;3.10;;;;;;;2.64;100.00;99087.31;5067194;28;20224;-70
2022/02/22 05:53:21;;;;;;;8.77;2.80;;;;;;;2.66;100.00;99092.53;5066936;28;20328;-70
2022/02/22 05:55:47;;;;;;;9.40;3.85;;;;;;;2.65;100.00;99096.84;5066850;28;20135;-70
2022/02/22 05:58:12;;;;;;;10.63;1.88;;;;;;;2.69;100.00;99101.25;5066767;28;20029;-70
2022/02/22 06:00:38;;;;;;;9.60;2.97;;;;;;;2.70;100.00;99107.34;5066736;28;20045;-70
2022/02/22 06:03:03;;;;;;;18.77;3.15;;;;;;;2.65;100.00;99104.66;5066590;28;20028;-70
2022/02/22 06:05:29;;;;;;;14.13;3.47;;;;;;;2.65;100.00;99111.59;5066635;28;20020;-70
2022/02/22 06:07:54;;;;;;;11.63;2.58;;;;;;;2.64;100.00;99115.91;5066619;28;20028;-70
2022/02/22 06:10:20;;;;;;;24.83;3.63;;;;;;;2.64;100.00;99113.31;5066546;28;20021;-70
2022/02/22 06:12:45;;;;;;;11.85;2.67;;;;;;;2.66;100.00;99127.19;5066574;28;20215;-70
2022/02/22 06:15:15;;;;;;;20.98;2.85;;;;;;;2.69;100.00;99116.84;5066456;28;20025;-70
2022/02/22 06:17:42;;;;;;;8.93;2.55;;;;;;;2.71;100.00;99120.38;5066422;28;20075;-70
2022/02/22 06:20:08;;;;;;;9.43;2.72;;;;;;;2.72;100.00;99122.09;5066391;28;20047;-70
2022/02/22 06:22:35;;;;;;;14.38;1.77;;;;;;;2.69;100.00;99122.03;5066230;28;20021;-70
2022/02/22 06:25:04;;;;;;;13.18;3.00;;;;;;;2.64;100.00;99138.41;5066216;28;20051;-70
2022/02/22 06:27:30;;;;;;;7.20;2.65;;;;;;;2.63;100.00;99132.34;5066226;28;20028;-70
2022/02/22 06:29:55;;;;;;;16.23;2.10;;;;;;;2.76;100.00;99139.53;5066110;28;20024;-70
2022/02/22 06:32:21;;;;;;;11.18;3.53;;;;;;;2.93;100.00;99148.50;5066162;28;20039;-70
2022/02/22 06:34:46;;;;;;;6.28;3.22;;;;;;;3.16;100.00;99147.19;5066116;28;20070;-70
2022/02/22 06:37:11;;;;;;;15.18;3.33;;;;;;;3.36;100.00;99147.56;5066045;28;20027;-70
2022/02/22 06:39:37;;;;;;;16.95;3.30;;;;;;;3.50;100.00;99149.53;5066045;28;20266;-70
2022/02/22 06:42:03;;;;;;;8.75;2.63;;;;;;;3.61;100.00;99157.53;5065904;28;20044;-70
2022/02/22 06:44:29;;;;;;;18.40;2.75;;;;;;;3.73;100.00;99158.59;5065864;28;20103;-70
2022/02/22 06:46:54;;;;;;;8.25;2.97;;;;;;;3.86;100.00;99167.47;5065931;28;20256;-70
2022/02/22 06:49:20;;;;;;;8.02;3.20;;;;;;;3.95;100.00;99181.50;5065814;28;20028;-70
2022/02/22 06:51:45;;;;;;;8.40;3.08;;;;;;;4.06;100.00;99177.34;5065799;28;20017;-70
2022/02/22 06:54:10;;;;;;;8.15;2.88;;;;;;;4.14;100.00;99178.31;5065756;28;20028;-70
2022/02/22 06:56:36;;;;;;;15.23;3.47;;;;;;;4.20;100.00;99175.81;5065687;28;20028;-70
2022/02/22 06:59:01;;;;;;;18.42;3.25;;;;;;;4.26;100.00;99178.50;5065500;28;20228;-70
2022/02/22 07:01:27;;;;;;;12.35;2.97;;;;;;;4.35;100.00;99183.84;5064371;28;20024;-70
2022/02/22 07:03:52;;;;;;;11.95;2.40;;;;;;;4.44;100.00;99189.16;5065595;28;20393;-70
2022/02/22 07:06:18;;;;;;;12.25;2.50;;;;;;;4.48;100.00;99193.56;5065565;28;20048;-70
2022/02/22 07:08:43;;;;;;;11.57;2.45;;;;;;;4.57;100.00;99185.00;5065449;28;20025;-70
2022/02/22 07:11:08;;;;;;;12.30;2.33;;;;;;;4.65;100.00;99192.91;5065411;28;20024;-70
2022/02/22 07:13:34;;;;;;;7.00;2.05;;;;;;;4.69;99.61;99190.38;5065358;28;20036;-70
2022/02/22 07:15:59;;;;;;;15.45;2.95;;;;;;;4.82;99.94;99196.59;5065577;28;20205;-70
2022/02/22 07:18:25;;;;;;;10.70;2.17;;;;;;;4.82;99.62;99188.78;5065515;28;20094;-70
2022/02/22 07:20:51;;;;;;;19.70;2.50;;;;;;;4.88;99.87;99196.69;5065231;28;20025;-70
2022/02/22 07:23:16;;;;;;;18.13;3.05;;;;;;;4.89;100.00;99193.19;5065342;28;20025;-70
2022/02/22 07:25:41;;;;;;;7.10;2.33;;;;;;;4.96;99.95;99205.44;5065034;28;20325;-70
2022/02/22 07:28:07;;;;;;;12.30;2.42;;;;;;;4.99;99.91;99201.16;5065078;28;20372;-70
2022/02/22 07:30:32;;;;;;;19.20;3.15;;;;;;;5.03;99.68;99205.53;5065037;28;20093;-70
2022/02/22 07:33:01;;;;;;;17.90;3.90;;;;;;;5.09;99.65;99228.25;5064953;28;20044;-70
2022/02/22 07:35:27;;;;;;;17.27;4.60;;;;;;;5.16;99.72;99219.63;5064905;28;20032;-70
2022/02/22 07:37:53;;;;;;;10.18;3.28;;;;;;;5.19;100.00;99219.66;5063742;28;20041;-70
2022/02/22 07:40:19;;;;;;;9.70;3.17;;;;;;;5.19;100.00;99219.66;5064813;28;20070;-70
2022/02/22 07:42:46;;;;;;;20.73;4.10;;;;;;;5.24;99.58;99225.78;5064237;28;20224;-70
2022/02/22 07:45:13;;;;;;;18.38;4.25;;;;;;;5.30;99.81;99234.56;5064798;28;20031;-70
2022/02/22 07:47:38;;;;;;;21.45;3.85;;;;;;;5.33;99.58;99239.81;5064717;28;20029;-70
2022/02/22 07:50:06;;;;;;;18.58;4.65;;;;;;;5.39;99.62;99244.22;5064720;28;20396;-70
2022/02/22 07:52:31;;;;;;;8.73;4.03;;;;;;;5.47;99.56;99248.66;5064625;28;20256;-70
2022/02/22 07:54:57;;;;;;;22.73;4.97;;;;;;;5.58;99.10;99251.41;5064586;28;20051;-70
2022/02/22 07:57:24;;;;;;;20.45;4.65;;;;;;;5.68;98.80;99248.00;5064555;28;20028;-70
2022/02/22 07:59:49;;;;;;;23.90;5.57;;;;;;;5.78;98.81;99261.19;5064317;28;20049;-70
2022/02/22 08:02:15;;;;;;;18.77;4.47;;;;;;;5.85;98.33;99262.13;5064439;28;20104;-70
2022/02/22 08:04:41;;;;;;;39.45;6.57;;;;;;;5.93;98.65;99266.59;5064442;28;20344;-70
2022/02/22 08:07:08;;;;;;;15.73;5.07;;;;;;;6.06;98.14;99278.00;5064647;28;20087;-70
2022/02/22 08:09:34;;;;;;;18.60;4.80;;;;;;;6.15;98.35;99288.53;5064276;28;20088;-70
2022/02/22 08:11:59;;;;;;;23.63;4.22;;;;;;;6.26;98.17;99276.41;5064259;28;20032;-70
2022/02/22 08:14:25;;;;;;;15.55;4.28;;;;;;;6.45;97.88;99278.31;5064231;28;20052;-70
2022/02/22 08:16:58;;;;;;;34.83;5.03;;;;;;;6.70;97.88;99280.22;5064210;28;20028;-70
2022/02/22 08:19:24;;;;;;;21.58;6.07;;;;;;;6.86;97.58;99281.22;5064472;28;20016;-70
2022/02/22 08:21:49;;;;;;;26.55;5.68;;;;;;;6.96;96.85;99286.47;5064077;28;20017;-70
2022/02/22 08:24:15;;;;;;;22.25;5.53;;;;;;;7.16;96.25;99271.75;5064038;28;20056;-70
2022/02/22 08:26:40;;;;;;;23.52;5.63;;;;;;;7.20;95.73;99283.09;5064037;28;20021;-70
2022/02/22 08:29:06;;;;;;;21.77;5.38;;;;;;;7.14;95.56;99286.56;5063991;28;20056;-70
2022/02/22 08:31:31;;;;;;;22.85;6.18;;;;;;;7.09;95.40;99290.91;5064009;28;20025;-70
2022/02/22 08:33:58;;;;;;;34.35;5.60;;;;;;;6.96;95.29;99289.09;5064025;28;20244;-70
2022/02/22 08:36:26;;;;;;;23.63;5.10;;;;;;;7.01;95.72;99287.38;5063966;28;20063;-70
2022/02/22 08:38:52;;;;;;;17.45;5.25;;;;;;;7.16;95.15;99287.47;5063899;28;20029;-70
2022/02/22 08:41:18;;;;;;;18.45;5.00;;;;;;;7.17;94.84;99293.56;5063855;28;20317;-70
2022/02/22 08:43:43;;;;;;;11.73;4.95;;;;;;;7.21;95.80;99285.72;5063811;28;20025;-70
2022/02/22 08:46:09;;;;;;;18.92;4.95;;;;;;;7.27;94.78;99280.50;5063852;28;20027;-70
2022/02/22 08:48:34;;;;;;;15.80;4.40;;;;;;;7.26;94.52;99277.88;5063814;28;20029;-70
2022/02/22 08:51:00;;;;;;;27.20;4.82;;;;;;;7.29;95.38;99278.78;5063807;28;20021;-70
2022/02/22 08:53:25;;;;;;;13.18;4.43;;;;;;;7.20;94.96;99281.38;5063771;28;20378;-70
2022/02/22 08:55:50;;;;;;;15.48;3.85;;;;;;;7.19;95.30;99278.75;5067350;28;20021;-70
2022/02/22 08:58:16;;;;;;;23.85;4.30;;;;;;;7.23;94.95;99273.53;5067811;28;20020;-70
2022/02/22 09:00:42;;;;;;;18.23;4.15;;;;;;;7.22;94.41;99277.03;5067858;28;20212;-70
2022/02/22 09:03:07;;;;;;;15.35;3.85;;;;;;;7.11;94.62;99283.94;5067719;28;20062;-70
2022/02/22 09:05:34;;;;;;;18.63;4.68;;;;;;;7.15;94.70;99295.31;5067766;28;20095;-70
2022/02/22 09:08:00;;;;;;;18.10;4.03;;;;;;;7.11;94.89;99281.31;5067700;28;20021;-70
2022/02/22 09:10:26;;;;;;;24.25;4.40;;;;;;;7.05;94.60;99283.91;5067674;28;20029;-70
2022/02/22 09:12:52;;;;;;;24.55;4.22;;;;;;;6.99;94.64;99283.88;5067657;28;20021;-70
2022/02/22 09:15:20;;;;;;;12.70;2.65;;;;;;;6.97;94.01;99279.50;5067688;28;20092;-70
2022/02/22 09:17:46;;;;;;;14.68;3.35;;;;;;;6.98;94.18;99292.59;5067542;28;20104;-70
2022/02/22 09:20:14;;;;;;;21.40;4.10;;;;;;;6.95;94.82;99292.59;5067529;28;20313;-70
2022/02/22 09:22:40;;;;;;;20.15;4.18;;;;;;;6.90;94.58;99296.94;5067378;28;20343;-70
2022/02/22 09:25:08;;;;;;;16.83;3.85;;;;;;;6.96;94.96;99299.56;5067331;28;20024;-70
2022/02/22 09:27:33;;;;;;;22.95;3.85;;;;;;;6.91;94.08;99280.34;5067615;28;20244;-70
2022/02/22 09:29:59;;;;;;;14.35;3.42;;;;;;;6.93;94.32;99278.59;5067582;28;20055;-70
2022/02/22 09:32:24;;;;;;;17.90;3.53;;;;;;;7.01;93.54;99274.28;5067297;28;20085;-70
2022/02/22 09:34:51;;;;;;;15.55;3.30;;;;;;;7.07;93.33;99282.19;5067283;28;20021;-70
2022/02/22 09:37:17;;;;;;;16.35;2.58;;;;;;;7.01;92.69;99276.91;5067197;28;20028;-70
2022/02/22 09:39:43;;;;;;;19.13;3.08;;;;;;;7.04;93.25;99265.56;5067150;28;20025;-70
2022/02/22 09:42:09;;;;;;;25.83;3.30;;;;;;;7.12;92.75;99269.97;5067036;28;20025;-70
2022/02/22 09:44:36;;;;;;;22.00;4.35;;;;;;;7.14;92.34;99272.59;5067083;28;20029;-70
2022/02/22 09:47:03;;;;;;;9.85;3.00;;;;;;;7.11;92.27;99277.81;5066977;28;20020;-70
2022/02/22 09:49:29;;;;;;;20.13;3.53;;;;;;;7.12;92.42;99267.34;5066990;28;20331;-70
2022/02/22 09:51:54;;;;;;;13.30;3.22;;;;;;;7.01;92.43;99265.56;5066875;28;20017;-70
2022/02/22 09:54:21;;;;;;;21.90;3.75;;;;;;;7.03;92.36;99275.19;5067184;28;20021;-70
2022/02/22 09:56:47;;;;;;;15.90;3.40;;;;;;;6.99;92.15;99268.16;5066888;28;20017;-70
2022/02/22 09:59:13;;;;;;;22.27;3.47;;;;;;;7.00;92.43;99274.28;5066678;28;20047;-70
2022/02/22 10:01:44;;;;;;;21.40;3.70;;;;;;;7.06;92.52;99269.97;5066675;28;20024;-70
2022/02/22 10:04:10;;;;;;;12.38;2.83;;;;;;;7.04;92.23;99271.69;5066704;28;20324;-70
2022/02/22 10:06:36;;;;;;;22.75;2.78;;;;;;;7.11;92.43;99278.69;5066200;28;20058;-70
2022/02/22 10:09:02;;;;;;;34.70;4.47;;;;;;;7.16;91.81;99276.09;5066601;28;20021;-70
2022/02/22 10:11:28;;;;;;;17.58;3.20;;;;;;;7.18;91.98;99277.84;5066570;28;20028;-70
2022/02/22 10:13:59;;;;;;;16.50;3.08;;;;;;;7.26;91.41;99275.28;5066758;28;20143;-70
2022/02/22 10:16:25;;;;;;;15.70;2.83;;;;;;;7.24;91.49;99275.25;5066584;28;20048;-70
2022/02/22 10:18:52;;;;;;;24.80;3.25;;;;;;;7.34;91.62;99271.81;5066473;28;20253;-70
2022/02/22 10:21:19;;;;;;;15.63;2.97;;;;;;;7.54;91.66;99270.16;5066417;28;20325;-70
2022/02/22 10:23:45;;;;;;;25.13;3.53;;;;;;;7.47;91.99;99263.13;5066149;28;20066;-70
2022/02/22 10:26:26;;;;;;;29.88;3.33;;;;;;;7.53;91.57;99268.38;5066274;28;20017;-70
2022/02/22 10:28:52;;;;;;;23.60;3.72;;;;;;;7.42;91.23;99272.72;5066509;28;20020;-70
2022/02/22 10:31:29;;;;;;;19.48;2.72;;;;;;;7.43;91.41;99271.84;5066444;28;20182;-70
2022/02/22 10:33:54;;;;;;;17.65;3.20;;;;;;;7.48;91.16;99274.47;5066204;28;20032;-70
2022/02/22 10:36:20;;;;;;;24.05;3.95;;;;;;;7.54;91.89;99269.25;5066108;28;20025;-70
2022/02/22 10:38:46;;;;;;;14.45;2.55;;;;;;;7.64;91.45;99274.53;5066043;28;20245;-70
2022/02/22 10:41:15;;;;;;;26.20;3.65;;;;;;;7.68;90.93;99273.66;5066286;28;20221;-70
2022/02/22 10:43:42;;;;;;;12.68;2.85;;;;;;;7.70;91.38;99266.69;5065881;28;20021;-70
2022/02/22 10:46:10;;;;;;;24.10;3.55;;;;;;;7.72;90.65;99257.06;5065903;28;20024;-70
2022/02/22 10:48:35;;;;;;;24.83;3.47;;;;;;;7.81;91.43;99256.19;5065871;28;20055;-70
2022/02/22 10:51:04;;;;;;;21.60;2.88;;;;;;;8.01;90.57;99247.50;5066073;28;20029;-70
2022/02/22 10:53:34;;;;;;;23.88;3.63;;;;;;;8.24;89.76;99244.91;5065761;28;20143;-70
2022/02/22 10:56:01;;;;;;;21.77;3.92;;;;;;;8.33;89.64;99251.00;5065786;28;20325;-70
2022/02/22 10:58:27;;;;;;;27.35;3.45;;;;;;;8.40;89.24;99246.66;5065488;28;20027;-70
2022/02/22 11:00:54;;;;;;;27.15;3.05;;;;;;;8.41;88.44;99246.66;5065929;28;20044;-70
2022/02/22 11:03:19;;;;;;;24.40;3.05;;;;;;;8.44;87.90;99245.75;5065560;28;20021;-70
2022/02/22 11:05:47;;;;;;;30.67;4.03;;;;;;;8.45;87.59;99240.50;5065555;28;20096;-70
2022/02/22 11:08:13;;;;;;;24.55;3.90;;;;;;;8.39;86.59;99243.13;5065478;28;20052;-70
2022/02/22 11:10:52;;;;;;;14.68;3.67;;;;;;;8.37;86.99;99239.66;5065436;28;20025;-70
2022/02/22 11:13:25;;;;;;;22.52;3.78;;;;;;;8.27;87.10;99222.19;5065490;28;20394;-70
2022/02/22 11:15:51;;;;;;;19.95;2.65;;;;;;;8.27;88.16;99230.06;5065413;28;20028;-70
2022/02/22 11:18:22;;;;;;;22.58;2.75;;;;;;;8.41;87.36;99224.78;5064499;28;20296;-70
2022/02/22 11:20:48;;;;;;;19.00;3.22;;;;;;;8.43;87.88;99221.31;5065269;28;20024;-70
2022/02/22 11:23:26;;;;;;;20.75;3.13;;;;;;;8.51;87.46;99221.25;5065135;28;20029;-70
2022/02/22 11:26:05;;;;;;;17.58;3.60;;;;;;;8.40;87.00;99212.56;5065162;28;20055;-70
2022/02/22 11:28:38;;;;;;;20.90;3.47;;;;;;;8.50;86.89;99212.53;5065133;28;20316;-70